St Lucie County International Airport
KFPR : now visible

Airfield :











YOU CAN JOIN US ON...

 
LOGIN :

Register | Disclaimer

   EN    FR    IT 

 









Legend :    VFR   Marginal VFR   IFR   Intensive IFR   Very Intensive IFR
Visi :
Ceiling :
>= 8 km
>= 3000ft
5 to 8 km
1000 to 3000 ft
1500m to 5 km
500 to 1000 ft
800 to 1500m
200 to 500 ft
< 800m
< 200 ft
Symbols :   Thunderstorms  Fog  Heavy snow  Heavy precipitations  Wind > 20 kt






- Airport Elevation : 24 ft
- IATA code : FPR


KFPR - St Lucie County International

CURRENT METAR :
  • 130353Z AUTO 00000KT 10SM CLR 14/12 A2996 RMK AO2 SLP145 T01440122

EXPIRED METARs :
  • 130253Z AUTO 00000KT 10SM CLR 16/13 A2995 RMK AO2 SLP142 T01560128 51019
  • 130153Z AUTO 00000KT 10SM CLR 16/13 A2994 RMK AO2 SLP137 T01560128

TAF KFPR
Valid from the 13 at 00:00 until the 14 at 00:00 UTC


122320Z 1300/1324 04006KT P6SM SKC
FM130130 VRB03KT P6SM FEW300
FM131300 35006KT P6SM FEW300
FM131530 03009KT P6SM FEW300
FM131700 07012KT P6SM FEW300
KZMA FIR / North America



MET'MAP, your aeronautical weather chart ! - Copyright ORBIFLY December 2007 - Disclaimer

ORBIFLY MET'MAP TEAM :

Programming & Development : Alexandra Zaïnal
Concept & original design : Baudouin d'Aumeries
Assistance for programming : Marc-Olivier Méhu
Technical & hardware support : Manuel Goepfert

Contact : metmap@orbifly.com




SOURCES & CREDITS :

   NOAA       Earth
Advisory